Time;durP1;ratioP1;P1;durP2;ratioP2;P2;SDS_P1;SDS_P2;PMS_P1;PMS_P2;Temp;Humidity;BMP_temperature;BMP_pressure;BME280_temperature;BME280_humidity;BME280_pressure;Samples;Min_cycle;Max_cycle;Signal;HPM_P1;HPM_P2
2022/03/23 00:01:13;;;;;;;14.02;9.93;;;;;;;21.62;36.88;103206.38;5007949;28;20034;-75
2022/03/23 00:03:38;;;;;;;12.52;9.70;;;;;;;21.62;36.84;103201.91;4979800;28;20045;-74
2022/03/23 00:06:04;;;;;;;12.70;10.68;;;;;;;21.59;36.79;103206.66;5012482;28;20044;-75
2022/03/23 00:08:30;;;;;;;13.93;10.60;;;;;;;21.49;36.99;103208.41;4966881;28;20454;-75
2022/03/23 00:10:56;;;;;;;13.88;10.30;;;;;;;21.36;36.75;103180.34;4999791;28;20069;-75
2022/03/23 00:13:22;;;;;;;11.90;9.88;;;;;;;21.59;36.72;103206.66;5008342;28;20033;-75
2022/03/23 00:15:48;;;;;;;11.60;9.05;;;;;;;21.53;36.91;103205.34;4977633;28;20125;-75
2022/03/23 00:18:13;;;;;;;12.00;9.70;;;;;;;21.50;36.80;103207.44;5013510;28;20042;-75
2022/03/23 00:20:40;;;;;;;14.52;10.77;;;;;;;21.54;36.77;103206.19;4975275;28;20065;-75
2022/03/23 00:23:08;;;;;;;12.68;9.80;;;;;;;21.50;36.76;103208.28;5013030;28;20064;-75
2022/03/23 00:25:35;;;;;;;13.75;10.20;;;;;;;21.41;36.88;103206.44;4972353;28;20049;-74
2022/03/23 00:28:00;;;;;;;11.88;10.02;;;;;;;21.46;36.72;103208.69;5005439;28;20045;-75
2022/03/23 00:30:26;;;;;;;14.50;10.20;;;;;;;21.45;36.80;103207.00;5008387;28;20045;-74
2022/03/23 00:32:51;;;;;;;13.50;10.02;;;;;;;21.49;36.98;103211.06;4981688;28;20041;-75
2022/03/23 00:35:17;;;;;;;12.75;9.90;;;;;;;21.43;37.04;103207.16;5010134;28;20034;-75
2022/03/23 00:37:43;;;;;;;13.25;10.18;;;;;;;21.40;37.03;103205.59;4979847;28;20507;-75
2022/03/23 00:40:09;;;;;;;14.40;10.98;;;;;;;21.39;37.06;103208.38;5013606;28;20042;-75
2022/03/23 00:42:35;;;;;;;14.70;10.35;;;;;;;21.36;37.04;103201.53;4964452;28;20048;-74
2022/03/23 00:45:05;;;;;;;12.95;10.18;;;;;;;21.34;37.20;103198.16;5012073;28;20705;-75
2022/03/23 00:47:30;;;;;;;13.35;9.82;;;;;;;21.35;36.91;103201.66;4977107;28;20042;-74
2022/03/23 00:49:58;;;;;;;12.60;9.98;;;;;;;21.34;36.94;103200.81;5013314;28;20155;-75
2022/03/23 00:52:23;;;;;;;14.52;10.50;;;;;;;21.35;37.04;103197.19;4980284;28;20586;-75
2022/03/23 00:54:49;;;;;;;11.88;9.30;;;;;;;21.21;37.00;103188.75;5013133;28;20060;-74
2022/03/23 00:57:14;;;;;;;11.05;9.25;;;;;;;21.19;37.08;103174.78;4977882;28;24475;-74
2022/03/23 00:59:40;;;;;;;12.95;10.15;;;;;;;21.31;37.07;103195.78;5000566;28;20507;-74
2022/03/23 01:02:07;;;;;;;13.18;10.02;;;;;;;21.22;37.20;103201.84;4993129;28;20574;-74
2022/03/23 01:04:32;;;;;;;12.20;9.75;;;;;;;21.24;37.05;103199.06;4981543;28;20512;-74
2022/03/23 01:06:58;;;;;;;12.93;10.02;;;;;;;21.23;37.06;103198.22;5009446;28;20095;-75
2022/03/23 01:09:25;;;;;;;13.75;10.05;;;;;;;21.15;37.23;103200.69;4976598;28;20045;-74
2022/03/23 01:11:55;;;;;;;12.50;9.40;;;;;;;21.16;37.07;103199.72;5011479;28;20031;-75
2022/03/23 01:14:23;;;;;;;13.95;9.98;;;;;;;21.07;37.27;103192.56;4982175;28;20038;-74
2022/03/23 01:16:50;;;;;;;12.30;9.95;;;;;;;21.02;37.31;103200.06;5008226;28;20491;-75
2022/03/23 01:19:17;;;;;;;12.52;9.40;;;;;;;21.02;37.23;103185.03;4977223;28;20045;-74
2022/03/23 01:21:44;;;;;;;12.15;8.70;;;;;;;21.09;37.14;103194.09;5015736;28;20073;-74
2022/03/23 01:24:12;;;;;;;12.15;10.25;;;;;;;21.13;37.32;103192.88;4973476;28;20810;-75
2022/03/23 01:26:38;;;;;;;12.13;9.48;;;;;;;21.10;37.15;103190.50;5010103;28;20045;-75
2022/03/23 01:29:04;;;;;;;12.82;9.65;;;;;;;21.06;37.25;103181.13;4974112;28;22347;-76
2022/03/23 01:31:30;;;;;;;12.60;10.25;;;;;;;20.98;37.27;103190.69;4995572;28;22933;-77
2022/03/23 01:33:59;;;;;;;13.97;9.90;;;;;;;20.98;37.18;103188.88;5009285;28;20064;-74
2022/03/23 01:36:30;;;;;;;14.02;10.40;;;;;;;20.98;37.26;103182.75;4973989;28;20050;-74
2022/03/23 01:38:56;;;;;;;12.75;9.70;;;;;;;21.09;37.25;103183.50;5011664;28;21464;-75
2022/03/23 01:41:23;;;;;;;11.90;9.30;;;;;;;20.93;37.34;103177.84;4988174;28;20036;-75
2022/03/23 01:43:49;;;;;;;13.38;10.50;;;;;;;20.97;37.32;103181.06;5011155;28;20132;-75
2022/03/23 01:46:19;;;;;;;12.95;10.23;;;;;;;20.90;37.31;103182.56;4964628;28;20052;-76
2022/03/23 01:48:45;;;;;;;;;;;;;;;20.98;37.30;103183.56;5003449;28;20241;-75
2022/03/23 01:51:11;;;;;;;13.65;9.55;;;;;;;20.77;37.32;103143.88;4980555;28;20587;-75
2022/03/23 01:53:38;;;;;;;12.30;9.50;;;;;;;20.89;37.20;103175.59;5016571;28;20025;-78
2022/03/23 01:56:05;;;;;;;12.00;9.57;;;;;;;20.92;37.43;103185.91;4976152;28;25780;-76
2022/03/23 01:58:30;;;;;;;11.70;9.15;;;;;;;20.88;37.45;103184.50;5011234;28;20132;-74
2022/03/23 02:00:56;;;;;;;12.88;9.57;;;;;;;20.96;37.17;103171.44;4979646;28;21505;-77
2022/03/23 02:03:25;;;;;;;13.10;9.77;;;;;;;20.94;37.07;103179.50;4977115;28;20121;-77
2022/03/23 02:05:50;;;;;;;11.65;9.55;;;;;;;20.84;37.30;103165.41;5009014;28;20129;-77
2022/03/23 02:08:19;;;;;;;12.45;9.98;;;;;;;20.87;37.15;103167.78;4976290;28;20048;-76
2022/03/23 02:10:46;;;;;;;11.80;9.55;;;;;;;20.84;37.51;103172.50;5013407;28;20037;-76
2022/03/23 02:13:13;;;;;;;11.48;9.02;;;;;;;20.87;37.31;103167.78;4981588;28;20045;-77
2022/03/23 02:15:39;;;;;;;11.50;9.00;;;;;;;20.81;37.64;103165.63;5023376;28;20037;-76
2022/03/23 02:18:06;;;;;;;11.95;9.95;;;;;;;20.74;37.75;103162.66;4970237;28;20042;-76
2022/03/23 02:20:33;;;;;;;12.38;9.73;;;;;;;20.80;37.39;103175.38;5015135;28;20068;-76
2022/03/23 02:22:59;;;;;;;12.43;9.88;;;;;;;20.77;37.43;103169.50;5008787;28;20045;-76
2022/03/23 02:25:27;;;;;;;11.20;9.23;;;;;;;20.83;37.33;103168.19;4973710;28;20097;-76
2022/03/23 02:27:54;;;;;;;13.38;10.15;;;;;;;20.88;37.26;103169.44;5007977;28;20037;-77
2022/03/23 02:30:21;;;;;;;14.05;9.98;;;;;;;20.71;37.47;103175.34;4973352;28;20053;-76
2022/03/23 02:32:47;;;;;;;11.60;9.32;;;;;;;20.70;37.56;103169.19;5004638;28;20132;-76
2022/03/23 02:35:13;;;;;;;12.73;9.60;;;;;;;20.71;37.40;103172.69;4969398;28;20029;-77
2022/03/23 02:37:39;;;;;;;13.77;10.02;;;;;;;20.70;37.43;103166.56;5012135;28;20045;-76
2022/03/23 02:40:06;;;;;;;12.27;9.25;;;;;;;20.66;37.27;103165.13;4979895;28;21056;-76
2022/03/23 02:42:32;;;;;;;11.45;9.35;;;;;;;20.75;37.38;103158.22;5003506;28;20034;-76
2022/03/23 02:44:57;;;;;;;13.38;10.15;;;;;;;20.69;37.52;103159.59;4980655;28;20130;-76
2022/03/23 02:47:23;;;;;;;11.60;9.82;;;;;;;20.73;37.37;103163.63;5007894;28;20052;-77
2022/03/23 02:49:48;;;;;;;12.52;9.80;;;;;;;20.65;37.45;103159.97;4994264;28;20040;-76
2022/03/23 02:52:14;;;;;;;12.40;9.70;;;;;;;20.76;37.37;103157.25;4995554;28;20052;-76
2022/03/23 03:03:14;;;;;;;12.20;9.77;;;;;;;20.69;37.23;103164.88;5002670;28;20036;-77
2022/03/23 03:05:40;;;;;;;12.13;9.32;;;;;;;20.71;37.24;103168.22;4997168;28;20054;-76
2022/03/23 03:10:50;;;;;;;12.02;9.18;;;;;;;20.66;37.32;103169.59;5008506;28;20155;-76
2022/03/23 03:13:15;;;;;;;13.32;10.02;;;;;;;20.60;37.41;103168.28;4978724;28;20695;-76
2022/03/23 03:15:41;;;;;;;12.07;9.75;;;;;;;20.55;37.57;103167.00;5005055;28;20156;-76
2022/03/23 03:18:06;;;;;;;12.73;9.93;;;;;;;20.63;37.49;103165.38;4976594;28;20683;-76
2022/03/23 03:20:32;;;;;;;12.90;9.40;;;;;;;20.65;37.39;103165.28;5006056;28;20060;-76
2022/03/23 03:22:58;;;;;;;11.93;9.07;;;;;;;20.66;37.24;103166.94;4972789;28;20321;-77
2022/03/23 03:25:24;;;;;;;12.68;10.38;;;;;;;20.48;37.50;103161.38;4996524;28;20076;-77
2022/03/23 03:27:49;;;;;;;12.45;9.95;;;;;;;20.54;37.53;103173.25;5009539;28;20103;-76
2022/03/23 03:30:17;;;;;;;11.80;9.10;;;;;;;20.57;37.57;103175.63;4975685;28;20046;-76
2022/03/23 03:32:43;;;;;;;13.80;9.90;;;;;;;20.60;37.37;103170.09;5006361;28;20041;-78
2022/03/23 03:35:10;;;;;;;12.95;9.75;;;;;;;20.51;37.40;103171.72;4979702;28;20045;-77
2022/03/23 03:37:37;;;;;;;13.82;9.70;;;;;;;20.58;37.42;103169.38;5010888;28;20033;-76
2022/03/23 03:40:05;;;;;;;13.63;9.23;;;;;;;20.51;37.42;103169.91;4967651;28;20070;-76
2022/03/23 03:42:31;;;;;;;12.80;9.20;;;;;;;20.54;37.39;103160.03;5005629;28;20382;-76
2022/03/23 03:44:57;;;;;;;13.32;9.85;;;;;;;20.44;37.59;103159.94;4977027;28;20497;-77
2022/03/23 03:47:23;;;;;;;13.57;10.13;;;;;;;20.53;37.41;103169.78;5010992;28;20074;-76
2022/03/23 03:49:50;;;;;;;11.75;9.60;;;;;;;20.65;37.04;103168.75;4986570;28;20045;-76
2022/03/23 03:52:16;;;;;;;13.50;9.93;;;;;;;20.66;37.20;103170.44;5001109;28;20053;-77
2022/03/23 03:54:42;;;;;;;13.07;10.02;;;;;;;20.66;37.04;103173.09;4996366;28;20396;-76
2022/03/23 03:57:08;;;;;;;11.43;8.90;;;;;;;20.71;36.87;103176.19;4981191;28;20049;-76
2022/03/23 03:59:34;;;;;;;13.77;10.00;;;;;;;20.61;37.15;103167.31;5012418;28;20041;-76
2022/03/23 04:02:00;;;;;;;13.90;10.45;;;;;;;20.61;37.08;103174.41;4975322;28;20045;-76
2022/03/23 04:04:26;;;;;;;13.00;9.95;;;;;;;20.63;36.86;103173.31;5008310;28;20193;-77
2022/03/23 04:06:52;;;;;;;11.93;9.55;;;;;;;20.65;37.04;103168.75;4976828;28;20041;-76
2022/03/23 04:09:17;;;;;;;12.57;9.90;;;;;;;20.61;37.22;103177.06;5009299;28;20414;-77
2022/03/23 04:11:43;;;;;;;14.43;10.48;;;;;;;20.55;37.29;103175.78;4975145;28;20040;-76
2022/03/23 04:14:08;;;;;;;14.25;10.20;;;;;;;20.48;37.15;103179.91;4998022;28;20052;-76
2022/03/23 04:16:34;;;;;;;13.23;10.18;;;;;;;20.47;37.41;103184.38;5004205;28;20037;-76
2022/03/23 04:19:00;;;;;;;12.98;9.93;;;;;;;20.25;37.45;103163.22;4978881;28;20049;-76
2022/03/23 04:21:26;;;;;;;12.77;9.63;;;;;;;20.51;37.19;103175.19;5009252;28;20091;-77
2022/03/23 04:23:52;;;;;;;12.00;10.02;;;;;;;20.23;37.58;103157.22;4981714;28;20113;-76
2022/03/23 04:26:17;;;;;;;13.43;9.82;;;;;;;20.37;37.33;103169.31;5009951;28;20058;-76
2022/03/23 04:28:43;;;;;;;12.55;9.88;;;;;;;20.39;37.39;103186.75;4970801;28;21042;-76
2022/03/23 04:31:08;;;;;;;12.43;9.80;;;;;;;20.33;37.55;103183.78;5006065;28;20030;-76
2022/03/23 04:33:34;;;;;;;15.50;10.48;;;;;;;20.36;37.44;103184.38;5012727;28;20132;-76
2022/03/23 04:35:59;;;;;;;13.48;10.55;;;;;;;20.36;37.38;103186.19;4977380;28;20388;-77
2022/03/23 04:38:26;;;;;;;14.15;10.90;;;;;;;20.39;37.46;103189.41;5013568;28;20037;-76
2022/03/23 04:40:52;;;;;;;14.95;10.00;;;;;;;20.17;37.51;103158.59;4985881;28;20107;-76
2022/03/23 04:43:18;;;;;;;13.00;10.07;;;;;;;20.34;37.44;103188.94;5008859;28;20996;-77
2022/03/23 04:45:43;;;;;;;13.40;10.45;;;;;;;20.29;37.53;103187.63;4970818;28;20034;-76
2022/03/23 04:48:09;;;;;;;13.85;9.98;;;;;;;20.31;37.51;103188.38;5014453;28;20041;-76
2022/03/23 04:50:35;;;;;;;13.85;10.73;;;;;;;20.17;37.88;103187.69;4984533;28;20051;-76
2022/03/23 04:53:00;;;;;;;14.27;9.93;;;;;;;20.24;37.55;103185.38;5013333;28;20075;-76
2022/03/23 04:55:26;;;;;;;12.80;9.75;;;;;;;20.28;37.54;103185.94;4984282;28;20046;-76
2022/03/23 04:57:51;;;;;;;12.30;9.60;;;;;;;20.17;37.74;103176.25;5013345;28;20053;-76
2022/03/23 05:00:20;;;;;;;12.70;9.63;;;;;;;20.20;37.55;103191.88;4981425;28;20049;-76
2022/03/23 05:02:46;;;;;;;12.30;9.68;;;;;;;20.24;37.58;103185.38;4999266;28;20048;-76
2022/03/23 05:05:13;;;;;;;12.57;9.70;;;;;;;20.07;37.56;103164.75;5005917;28;21503;-76
2022/03/23 05:07:40;;;;;;;12.98;9.27;;;;;;;20.23;37.55;103194.25;4981441;28;20044;-77
2022/03/23 05:10:08;;;;;;;14.95;10.55;;;;;;;20.31;37.40;103183.91;5009420;28;20133;-77
2022/03/23 05:12:36;;;;;;;12.57;10.15;;;;;;;20.20;37.55;103190.06;4980349;28;20124;-76
2022/03/23 05:15:04;;;;;;;13.90;10.65;;;;;;;20.19;37.52;103188.41;5007001;28;20030;-77
2022/03/23 05:17:31;;;;;;;13.57;10.68;;;;;;;20.21;37.53;103191.75;4967259;28;20041;-77
2022/03/23 05:19:57;;;;;;;11.75;9.45;;;;;;;20.14;37.57;103193.22;5010128;28;20060;-77
2022/03/23 05:22:22;;;;;;;13.88;10.57;;;;;;;20.13;37.67;103188.06;5010109;28;20053;-76
2022/03/23 05:24:48;;;;;;;14.80;11.32;;;;;;;20.11;37.66;103190.00;4976057;28;20073;-76
2022/03/23 05:27:13;;;;;;;15.90;10.25;;;;;;;20.05;37.75;103185.19;5010645;28;20124;-75
2022/03/23 05:29:39;;;;;;;14.50;11.18;;;;;;;20.08;37.64;103195.50;4962483;28;20237;-75
2022/03/23 05:32:06;;;;;;;12.68;9.60;;;;;;;20.04;37.73;103191.44;5011765;28;20041;-75
2022/03/23 05:34:31;;;;;;;13.07;11.02;;;;;;;20.02;37.78;103191.56;4963905;28;20045;-75
2022/03/23 05:36:57;;;;;;;13.75;10.88;;;;;;;19.81;38.05;103177.44;5005270;28;20680;-75
2022/03/23 05:39:22;;;;;;;12.65;10.38;;;;;;;19.90;37.95;103190.75;4973932;28;20041;-75
2022/03/23 05:41:48;;;;;;;15.15;11.25;;;;;;;19.84;38.19;103193.03;5014376;28;20041;-75
2022/03/23 05:44:13;;;;;;;12.55;9.68;;;;;;;19.91;38.13;103204.81;4976598;28;20038;-75
2022/03/23 05:46:39;;;;;;;14.48;10.13;;;;;;;19.88;38.06;103197.13;5005267;28;20034;-75
2022/03/23 05:49:04;;;;;;;13.55;9.73;;;;;;;19.69;38.34;103195.09;4979924;28;20547;-75
2022/03/23 05:51:30;;;;;;;13.35;10.90;;;;;;;19.62;38.55;103201.84;4995425;28;20064;-75
2022/03/23 05:53:56;;;;;;;13.10;10.48;;;;;;;19.80;38.14;103207.47;5008418;28;20034;-75
2022/03/23 05:56:21;;;;;;;12.88;9.90;;;;;;;19.75;38.39;103204.34;4973976;28;20033;-75
2022/03/23 05:58:48;;;;;;;15.00;10.48;;;;;;;19.72;38.35;103209.88;5012162;28;21750;-75
2022/03/23 06:01:14;;;;;;;12.40;9.60;;;;;;;19.66;38.29;103199.78;4976105;28;20038;-75
2022/03/23 06:03:39;;;;;;;13.80;10.70;;;;;;;19.61;38.58;103202.81;5013207;28;20075;-75
2022/03/23 06:06:05;;;;;;;15.70;11.48;;;;;;;19.71;38.46;103214.31;4971568;28;20040;-75
2022/03/23 06:08:30;;;;;;;13.20;10.50;;;;;;;19.65;38.58;103214.81;5007126;28;20044;-75
2022/03/23 06:10:56;;;;;;;12.95;10.15;;;;;;;19.76;38.25;103213.97;4965609;28;20126;-75
2022/03/23 06:13:21;;;;;;;12.23;9.65;;;;;;;19.80;38.28;103215.41;5024706;28;20041;-75
2022/03/23 06:15:47;;;;;;;13.15;9.82;;;;;;;19.74;38.28;103214.06;4986369;28;20037;-75
2022/03/23 06:18:13;;;;;;;12.80;9.63;;;;;;;20.12;37.68;103215.47;4999350;28;20045;-76
2022/03/23 06:20:39;;;;;;;13.05;10.13;;;;;;;20.69;36.67;103209.88;4985568;28;20061;-75
2022/03/23 06:23:05;;;;;;;11.48;9.60;;;;;;;21.36;35.73;103214.81;4972168;28;20381;-75
2022/03/23 06:25:31;;;;;;;12.43;9.18;;;;;;;22.08;34.71;103213.78;5010653;28;20038;-75
2022/03/23 06:27:57;;;;;;;14.77;10.10;;;;;;;22.67;33.58;103225.28;4985214;28;20041;-75
2022/03/23 06:30:22;;;;;;;13.27;10.20;;;;;;;23.00;33.18;103222.19;5002229;28;20050;-76
2022/03/23 06:32:48;;;;;;;13.02;10.02;;;;;;;23.08;33.17;103232.09;4974736;28;20034;-75
2022/03/23 06:35:16;;;;;;;12.95;10.20;;;;;;;22.95;33.03;103228.91;5012578;28;20037;-75
2022/03/23 06:37:43;;;;;;;11.30;9.30;;;;;;;22.79;33.37;103227.63;4944232;28;21303;-75
2022/03/23 06:40:10;;;;;;;11.10;9.30;;;;;;;22.64;33.60;103231.72;5007726;28;20713;-75
2022/03/23 06:42:36;;;;;;;11.48;9.27;;;;;;;22.56;34.08;103237.72;5010703;28;20068;-75
2022/03/23 06:45:02;;;;;;;12.82;9.45;;;;;;;22.41;34.34;103239.09;4978987;28;20053;-75
2022/03/23 06:47:29;;;;;;;11.48;9.55;;;;;;;22.11;34.58;103233.91;5009075;28;20071;-75
2022/03/23 06:49:55;;;;;;;12.77;10.02;;;;;;;22.00;35.00;103242.78;4974019;28;20037;-75
2022/03/23 06:52:20;;;;;;;13.85;9.18;;;;;;;21.76;35.46;103237.84;5002670;28;20412;-75
2022/03/23 06:54:46;;;;;;;13.52;10.43;;;;;;;21.52;36.08;103248.75;4962804;28;20159;-75
2022/03/23 06:57:12;;;;;;;16.95;9.80;;;;;;;21.76;35.71;103242.31;5007921;28;20064;-75
2022/03/23 06:59:37;;;;;;;13.38;9.77;;;;;;;22.41;34.45;103247.06;4985582;28;20041;-75
2022/03/23 07:02:03;;;;;;;12.35;10.10;;;;;;;22.83;33.60;103250.31;5017446;28;20116;-75
2022/03/23 07:04:29;;;;;;;13.48;9.43;;;;;;;22.94;33.61;103251.13;4975755;28;20054;-75
2022/03/23 07:06:54;;;;;;;13.73;10.38;;;;;;;22.86;33.65;103250.03;5007010;28;20042;-76
2022/03/23 07:09:32;;;;;;;12.27;9.32;;;;;;;22.76;33.95;103246.50;4975453;28;20624;-75
2022/03/23 07:11:59;;;;;;;12.23;9.80;;;;;;;22.61;33.93;103248.75;5008077;28;20037;-75
2022/03/23 07:14:30;;;;;;;12.02;9.05;;;;;;;22.39;34.17;103238.41;5012892;28;20037;-75
2022/03/23 07:16:55;;;;;;;12.93;9.82;;;;;;;22.36;34.33;103251.97;4979604;28;20251;-75
2022/03/23 07:19:22;;;;;;;11.32;9.70;;;;;;;22.23;34.67;103259.34;5006549;28;20032;-75
2022/03/23 07:21:48;;;;;;;12.55;9.93;;;;;;;21.89;35.26;103259.63;4977956;28;20057;-76
2022/03/23 07:24:14;;;;;;;12.27;9.80;;;;;;;21.74;35.84;103254.88;5009069;28;20041;-75
2022/03/23 07:26:39;;;;;;;12.38;9.90;;;;;;;21.64;36.02;103263.59;4963969;28;20480;-76
2022/03/23 07:29:05;;;;;;;12.30;9.80;;;;;;;21.48;36.28;103259.75;5005186;28;20046;-75
2022/03/23 07:31:31;;;;;;;13.25;9.95;;;;;;;21.55;36.27;103266.22;4976925;28;20046;-75
2022/03/23 07:33:57;;;;;;;12.48;9.88;;;;;;;21.48;36.53;103267.72;5007802;28;20514;-75
2022/03/23 07:36:24;;;;;;;12.57;9.95;;;;;;;21.57;36.33;103264.28;4983355;28;20076;-75
2022/03/23 07:38:50;;;;;;;12.40;9.88;;;;;;;21.47;36.27;103261.56;5006228;28;20530;-75
2022/03/23 07:41:16;;;;;;;11.60;9.43;;;;;;;21.50;36.46;103256.00;4975916;28;20041;-75
2022/03/23 07:43:41;;;;;;;13.40;9.98;;;;;;;21.42;36.44;103267.28;4997686;28;20045;-75
2022/03/23 07:46:07;;;;;;;13.25;9.07;;;;;;;21.42;36.61;103275.22;5010008;28;20491;-76
2022/03/23 07:48:33;;;;;;;10.77;9.05;;;;;;;21.31;36.81;103275.28;4974219;28;20103;-75
2022/03/23 07:50:58;;;;;;;11.20;8.65;;;;;;;21.31;36.57;103274.44;5006490;28;20097;-75
2022/03/23 07:53:24;;;;;;;12.60;9.68;;;;;;;21.25;36.80;103277.63;4979770;28;20056;-76
2022/03/23 07:55:49;;;;;;;11.70;9.32;;;;;;;21.15;37.06;103263.44;5009722;28;20053;-75
2022/03/23 07:58:15;;;;;;;12.13;9.82;;;;;;;21.12;36.94;103260.06;4973521;28;20054;-76
2022/03/23 08:00:42;;;;;;;11.93;9.27;;;;;;;21.23;37.26;103290.97;5000769;28;20037;-76
2022/03/23 08:03:08;;;;;;;11.85;9.02;;;;;;;21.19;37.04;103278.97;5015888;28;20068;-74
2022/03/23 08:05:34;;;;;;;12.23;9.27;;;;;;;21.18;37.32;103287.03;4975710;28;20046;-75
2022/03/23 08:07:59;;;;;;;11.20;8.95;;;;;;;21.14;37.23;103275.84;5009285;28;20049;-74
2022/03/23 08:10:25;;;;;;;12.65;9.60;;;;;;;21.24;37.14;103284.75;4978703;28;20084;-75
2022/03/23 08:12:51;;;;;;;10.98;8.73;;;;;;;21.28;37.00;103280.00;4998193;28;20537;-75
2022/03/23 08:15:16;;;;;;;12.00;9.27;;;;;;;21.67;36.37;103281.91;4961792;28;20563;-75
2022/03/23 08:17:42;;;;;;;11.15;9.20;;;;;;;22.26;35.12;103270.53;5011258;28;20081;-75
2022/03/23 08:22:55;;;;;;;10.68;8.80;;;;;;;22.63;34.60;103288.47;5014267;28;20088;-74
2022/03/23 08:25:21;;;;;;;12.02;9.02;;;;;;;22.50;34.66;103288.72;4978376;28;20044;-74
2022/03/23 08:27:46;;;;;;;13.40;9.07;;;;;;;22.30;35.17;103290.53;5017188;28;20221;-74
2022/03/23 08:30:12;;;;;;;10.27;8.70;;;;;;;22.19;35.57;103284.47;4980040;28;21668;-74
2022/03/23 08:32:38;;;;;;;11.88;8.15;;;;;;;22.07;35.78;103289.03;5006680;28;20018;-74
2022/03/23 08:35:04;;;;;;;11.43;9.35;;;;;;;21.94;35.70;103285.78;5017782;28;20030;-73
2022/03/23 08:37:30;;;;;;;10.70;8.32;;;;;;;21.92;35.96;103285.09;4982501;28;20049;-74
2022/03/23 08:39:56;;;;;;;11.80;9.10;;;;;;;21.85;36.13;103283.91;5009938;28;20224;-74
2022/03/23 08:42:21;;;;;;;12.73;8.05;;;;;;;21.76;36.13;103282.09;4979850;28;20135;-75
2022/03/23 08:44:47;;;;;;;11.57;9.32;;;;;;;21.71;36.19;103290.41;5018018;28;20152;-75
2022/03/23 08:47:13;;;;;;;10.38;7.97;;;;;;;21.65;36.39;103288.31;4971634;28;20103;-73
2022/03/23 08:49:39;;;;;;;9.85;8.57;;;;;;;21.54;36.88;103280.41;5016376;28;20038;-74
2022/03/23 08:52:05;;;;;;;9.90;8.15;;;;;;;21.61;36.56;103287.75;4986590;28;20038;-74
2022/03/23 08:54:31;;;;;;;10.90;8.60;;;;;;;21.48;36.86;103288.91;5012831;28;20041;-74
2022/03/23 08:56:56;;;;;;;11.23;8.75;;;;;;;21.46;36.98;103294.34;4983471;28;21894;-74
2022/03/23 08:59:22;;;;;;;10.68;8.20;;;;;;;21.48;36.67;103289.75;5020315;28;20750;-74
2022/03/23 09:01:48;;;;;;;9.15;7.93;;;;;;;21.34;37.06;103279.47;4987961;28;20112;-74
2022/03/23 09:04:15;;;;;;;10.98;8.52;;;;;;;21.37;37.08;103295.16;4994790;28;20034;-73
2022/03/23 09:06:40;;;;;;;11.07;8.23;;;;;;;21.30;36.94;103286.88;5018636;28;20037;-74
2022/03/23 09:09:06;;;;;;;8.52;7.65;;;;;;;21.37;37.18;103303.09;4980828;28;20049;-74
2022/03/23 09:11:32;;;;;;;11.05;8.52;;;;;;;21.34;37.47;103303.34;5016736;28;20676;-74
2022/03/23 09:13:58;;;;;;;9.48;7.68;;;;;;;21.26;37.34;103296.06;4988761;28;20036;-74
2022/03/23 09:16:24;;;;;;;9.77;8.40;;;;;;;21.24;37.53;103305.06;5017929;28;20029;-74
2022/03/23 09:18:49;;;;;;;10.55;8.30;;;;;;;21.25;37.44;103293.53;4970536;28;20673;-74
2022/03/23 09:21:15;;;;;;;10.75;7.93;;;;;;;21.33;37.09;103297.19;5015335;28;20057;-74
2022/03/23 09:23:41;;;;;;;10.90;8.65;;;;;;;21.30;37.40;103299.28;5004047;28;20033;-74
2022/03/23 09:26:11;;;;;;;9.50;7.47;;;;;;;21.26;37.12;103293.41;4978511;28;20103;-74
2022/03/23 09:28:41;;;;;;;10.07;7.97;;;;;;;21.13;37.23;103272.34;5001311;28;20167;-74
2022/03/23 09:31:07;;;;;;;10.80;8.05;;;;;;;21.22;37.49;103291.94;4993672;28;20263;-74
2022/03/23 09:33:32;;;;;;;10.77;8.52;;;;;;;21.24;37.34;103289.16;5008494;28;20038;-72
2022/03/23 09:35:58;;;;;;;10.38;8.05;;;;;;;21.22;37.34;103289.31;4966966;28;20483;-72
2022/03/23 09:38:24;;;;;;;10.23;7.72;;;;;;;21.19;37.20;103283.44;5013680;28;20073;-75
2022/03/23 09:40:51;;;;;;;10.55;8.70;;;;;;;21.45;36.95;103292.66;4975935;28;20045;-73
2022/03/23 09:43:20;;;;;;;9.82;7.57;;;;;;;22.09;35.64;103292.44;5013412;28;20045;-75
2022/03/23 09:45:48;;;;;;;11.07;8.27;;;;;;;22.42;35.37;103283.25;4976725;28;20148;-73
2022/03/23 09:48:17;;;;;;;11.93;8.60;;;;;;;22.72;34.59;103292.09;4999095;28;20037;-73
2022/03/23 09:50:52;;;;;;;9.63;7.95;;;;;;;22.70;34.91;103286.91;4971581;28;20811;-72
2022/03/23 09:53:19;;;;;;;10.52;7.32;;;;;;;22.54;35.03;103287.47;5013285;28;20116;-73
2022/03/23 09:55:46;;;;;;;10.98;7.85;;;;;;;22.33;35.53;103292.06;5008186;28;20432;-73
2022/03/23 09:58:12;;;;;;;9.13;7.63;;;;;;;22.20;35.66;103288.81;4985665;28;20033;-73
2022/03/23 10:00:44;;;;;;;11.98;7.88;;;;;;;22.18;35.46;103288.09;5007309;28;20554;-73
2022/03/23 10:03:09;;;;;;;12.00;7.75;;;;;;;22.02;36.04;103286.78;4978090;28;20077;-73
2022/03/23 10:05:54;;;;;;;10.10;7.72;;;;;;;21.97;35.83;103289.00;5018521;28;20034;-73
2022/03/23 10:08:57;;;;;;;9.75;8.13;;;;;;;21.95;35.72;103277.69;5005749;28;20045;-73
2022/03/23 10:11:47;;;;;;;10.15;7.85;;;;;;;21.94;35.72;103281.31;5010436;28;20045;-73
2022/03/23 10:14:46;;;;;;;10.35;7.85;;;;;;;21.83;36.08;103284.06;5004817;28;20037;-73
2022/03/23 10:17:44;;;;;;;10.30;7.38;;;;;;;21.90;35.77;103281.69;4980560;28;20247;-73
2022/03/23 10:20:14;;;;;;;9.70;7.40;;;;;;;21.81;36.29;103282.50;5012300;28;20037;-72
2022/03/23 10:22:51;;;;;;;10.00;8.02;;;;;;;21.89;35.60;103280.84;4972674;28;20049;-72
2022/03/23 10:25:28;;;;;;;8.73;7.15;;;;;;;21.86;35.74;103280.28;5014939;28;20073;-73
2022/03/23 10:27:55;;;;;;;8.90;7.20;;;;;;;21.84;36.05;103274.28;4989897;28;20111;-72
2022/03/23 10:30:33;;;;;;;9.32;7.43;;;;;;;21.89;35.69;103270.25;5015963;28;20022;-73
2022/03/23 10:32:58;;;;;;;9.70;7.07;;;;;;;21.90;35.60;103279.03;4984055;28;20756;-72
2022/03/23 10:35:38;;;;;;;8.43;7.05;;;;;;;21.77;35.72;103259.91;5015763;28;20029;-73
2022/03/23 10:38:12;;;;;;;9.13;7.60;;;;;;;21.81;35.88;103262.13;4979926;28;21936;-72
2022/03/23 10:40:37;;;;;;;9.23;7.22;;;;;;;21.73;35.81;103272.59;5002989;28;20033;-73
2022/03/23 10:43:03;;;;;;;9.07;7.18;;;;;;;21.81;35.57;103256.84;5012014;28;20243;-72
2022/03/23 10:45:32;;;;;;;8.57;6.68;;;;;;;21.87;35.55;103266.91;4977778;28;20068;-73
2022/03/23 10:48:08;;;;;;;8.95;6.95;;;;;;;21.83;35.64;103257.53;5019729;28;20478;-73
2022/03/23 10:50:34;;;;;;;10.05;7.30;;;;;;;21.75;35.64;103246.78;4977633;28;20147;-72
2022/03/23 10:53:05;;;;;;;9.88;7.00;;;;;;;21.78;35.55;103265.06;5014441;28;20144;-73
2022/03/23 10:55:36;;;;;;;10.18;7.05;;;;;;;21.82;35.65;103255.84;4967761;28;20487;-72
2022/03/23 10:58:02;;;;;;;9.32;7.20;;;;;;;21.79;35.58;103258.78;5019572;28;20039;-72
2022/03/23 11:00:34;;;;;;;8.88;7.10;;;;;;;21.62;35.75;103251.44;4984556;28;20515;-73
2022/03/23 11:03:01;;;;;;;9.25;7.00;;;;;;;21.65;35.70;103248.53;5015309;28;20043;-73
2022/03/23 11:05:35;;;;;;;9.50;7.03;;;;;;;21.81;35.48;103251.53;4977454;28;20041;-72
2022/03/23 11:08:09;;;;;;;7.50;6.32;;;;;;;21.96;35.04;103252.00;5014188;28;20224;-72
2022/03/23 11:16:44;;;;;;;7.60;6.20;;;;;;;22.47;34.04;103249.19;4975737;28;20042;-73
2022/03/23 11:19:10;;;;;;;10.02;6.72;;;;;;;22.43;34.30;103245.09;5010928;28;20036;-73
2022/03/23 11:21:57;;;;;;;9.75;6.85;;;;;;;22.38;34.57;103247.34;4977602;28;20057;-72
2022/03/23 11:24:24;;;;;;;7.53;6.68;;;;;;;22.31;34.84;103241.75;5015788;28;20037;-72
2022/03/23 11:26:50;;;;;;;8.73;6.60;;;;;;;22.31;34.73;103246.22;4976337;28;20736;-72
2022/03/23 11:29:18;;;;;;;9.88;6.30;;;;;;;22.26;34.56;103237.81;5017185;28;20090;-72
2022/03/23 11:31:48;;;;;;;8.18;6.45;;;;;;;22.22;34.61;103233.78;5007638;28;20525;-72
2022/03/23 11:34:20;;;;;;;8.45;6.15;;;;;;;22.15;34.80;103225.53;5005604;28;20109;-72
2022/03/23 11:36:50;;;;;;;7.80;6.05;;;;;;;22.23;34.76;103238.09;4994543;28;20507;-72